Time;durP1;ratioP1;P1;durP2;ratioP2;P2;SDS_P1;SDS_P2;PMS_P1;PMS_P2;Temp;Humidity;BMP_temperature;BMP_pressure;BME280_temperature;BME280_humidity;BME280_pressure;Samples;Min_cycle;Max_cycle;Signal;HPM_P1;HPM_P2
2022/04/05 06:14:17;;;;;;;1.30;1.07;;;;;;;;;;12309312;22;15865291;-84
2022/04/05 06:19:23;;;;;;;2.45;1.73;;;;;;;;;;12921141;23;20083;-84
2022/04/05 06:24:26;;;;;;;2.80;2.00;;;;;;;;;;12901662;23;20004;-84
2022/04/05 06:29:39;;;;;;;2.00;1.52;;;;;;;;;;12924177;23;20017;-83
2022/04/05 06:34:43;;;;;;;1.52;1.15;;;;;;;;;;12912637;23;20374;-82
2022/04/05 06:40:25;;;;;;;2.75;1.92;;;;;;;;;;12911737;23;20012;-86
2022/04/05 06:45:28;;;;;;;2.40;1.70;;;;;;;;;;12753369;23;19997;-85
2022/04/05 06:50:38;;;;;;;1.63;1.20;;;;;;;;;;12892342;23;20031;-85
2022/04/05 06:56:00;;;;;;;1.80;1.40;;;;;;;;;;12896970;23;20173;-84
2022/04/05 07:01:20;;;;;;;2.10;1.73;;;;;;;;;;12900521;23;20103;-85
2022/04/05 07:06:24;;;;;;;1.48;1.20;;;;;;;;;;12925888;23;19989;-84
2022/04/05 07:11:26;;;;;;;3.33;1.98;;;;;;;;;;12915187;23;20055;-83
2022/04/05 07:16:32;;;;;;;3.40;2.15;;;;;;;;;;12894345;23;20046;-82
2022/04/05 07:21:34;;;;;;;3.80;2.60;;;;;;;;;;12884754;23;20305;-80
2022/04/05 07:26:35;;;;;;;4.30;3.38;;;;;;;;;;12878336;23;20062;-80
2022/04/05 07:31:36;;;;;;;4.00;3.00;;;;;;;;;;12879677;23;20005;-80
2022/04/05 07:36:37;;;;;;;6.32;5.18;;;;;;;;;;12877146;23;20003;-80
2022/04/05 07:41:38;;;;;;;6.35;5.57;;;;;;;;;;12874790;23;20011;-80
2022/04/05 07:46:39;;;;;;;6.63;5.90;;;;;;;;;;12874742;23;20012;-82
2022/04/05 07:51:40;;;;;;;6.25;4.57;;;;;;;;;;12879253;23;20028;-81
2022/04/05 07:56:41;;;;;;;7.43;5.80;;;;;;;;;;12854767;23;20045;-81
2022/04/05 08:01:43;;;;;;;;;;;;;;;;;;12879478;23;20005;-82
2022/04/05 08:06:44;;;;;;;6.43;5.22;;;;;;;;;;12881590;23;19900;-81
2022/04/05 08:11:45;;;;;;;6.95;6.25;;;;;;;;;;12884980;23;20005;-82
2022/04/05 08:16:46;;;;;;;;;;;;;;;;;;12884551;23;20306;-82
2022/04/05 08:21:47;;;;;;;9.90;8.90;;;;;;;;;;12895855;23;19896;-83
2022/04/05 08:26:47;;;;;;;;;;;;;;;;;;12888588;23;20384;-80
2022/04/05 08:31:48;;;;;;;6.30;5.38;;;;;;;;;;12877078;23;20260;-78
2022/04/05 08:36:49;;;;;;;;;;;;;;;;;;12872009;23;20003;-78
2022/04/05 08:41:52;;;;;;;6.75;5.30;;;;;;;;;;12871661;23;19946;-78
2022/04/05 08:46:53;;;;;;;6.13;4.60;;;;;;;;;;12874447;23;20020;-79
2022/04/05 08:51:54;;;;;;;6.00;4.75;;;;;;;;;;12875905;23;20004;-78
2022/04/05 08:56:55;;;;;;;7.68;5.55;;;;;;;;;;12883965;23;20009;-78
2022/04/05 09:01:56;;;;;;;4.78;3.00;;;;;;;;;;12907352;23;20020;-78
2022/04/05 09:06:57;;;;;;;;;;;;;;;;;;12919142;23;19993;-80
2022/04/05 09:11:59;;;;;;;5.72;3.38;;;;;;;;;;12917071;23;19916;-80
2022/04/05 09:17:12;;;;;;;7.75;5.88;;;;;;;;;;12914604;23;20001;-80
2022/04/05 09:22:13;;;;;;;6.65;5.50;;;;;;;;;;12917898;23;20049;-83
2022/04/05 09:27:14;;;;;;;7.05;4.28;;;;;;;;;;12917811;23;20003;-82
2022/04/05 09:32:15;;;;;;;;;;;;;;;;;;12918177;23;20015;-79
2022/04/05 09:37:16;;;;;;;6.20;5.03;;;;;;;;;;12916916;23;19911;-81
2022/04/05 09:42:17;;;;;;;4.70;4.07;;;;;;;;;;12917256;23;20023;-81
2022/04/05 09:47:18;;;;;;;;;;;;;;;;;;12918042;23;19997;-82
2022/04/05 09:52:30;;;;;;;5.05;4.32;;;;;;;;;;12917663;23;19896;-82
2022/04/05 09:57:32;;;;;;;5.38;4.40;;;;;;;;;;12916971;23;19996;-80
2022/04/05 10:02:33;;;;;;;4.10;3.30;;;;;;;;;;12916251;23;20016;-82
2022/04/05 10:07:34;;;;;;;;;;;;;;;;;;12916604;23;20078;-80
2022/04/05 10:12:35;;;;;;;5.10;4.20;;;;;;;;;;12917232;23;19903;-79
2022/04/05 10:17:36;;;;;;;;;;;;;;;;;;12916641;23;20051;-80
2022/04/05 10:22:38;;;;;;;6.55;5.35;;;;;;;;;;12891972;23;19904;-79
2022/04/05 10:27:40;;;;;;;5.22;2.50;;;;;;;;;;12887268;23;20001;-79
2022/04/05 10:32:48;;;;;;;4.53;2.88;;;;;;;;;;12883353;23;20012;-80
2022/04/05 10:37:51;;;;;;;5.25;2.95;;;;;;;;;;12881092;23;20449;-79
2022/04/05 10:42:53;;;;;;;7.40;3.80;;;;;;;;;;12877636;23;20020;-82
2022/04/05 10:48:11;;;;;;;6.95;3.15;;;;;;;;;;12877006;23;20012;-82
2022/04/05 10:53:12;;;;;;;4.43;3.05;;;;;;;;;;12882495;23;20004;-82
2022/04/05 10:58:13;;;;;;;4.47;3.10;;;;;;;;;;12880100;23;20004;-82
2022/04/05 11:03:14;;;;;;;3.45;2.63;;;;;;;;;;12886499;23;20071;-80
2022/04/05 11:08:16;;;;;;;4.15;2.50;;;;;;;;;;12879646;23;20000;-81
2022/04/05 11:13:39;;;;;;;3.63;2.67;;;;;;;;;;12880670;23;20019;-81
2022/04/05 11:18:41;;;;;;;6.57;3.10;;;;;;;;;;12877026;23;20001;-80
2022/04/05 11:23:43;;;;;;;2.70;2.13;;;;;;;;;;12879899;23;20454;-79
2022/04/05 11:28:48;;;;;;;4.85;2.25;;;;;;;;;;12880532;23;20001;-79
2022/04/05 11:33:49;;;;;;;3.80;2.90;;;;;;;;;;12877710;23;20001;-80
2022/04/05 11:38:51;;;;;;;2.95;2.10;;;;;;;;;;12888719;23;20119;-78
2022/04/05 11:43:54;;;;;;;2.83;2.25;;;;;;;;;;12897074;23;20005;-79
2022/04/05 11:48:56;;;;;;;6.72;2.72;;;;;;;;;;12892797;23;20032;-81
2022/04/05 11:54:05;;;;;;;3.80;2.30;;;;;;;;;;12897636;23;20011;-82
2022/04/05 11:59:07;;;;;;;8.00;2.63;;;;;;;;;;12887205;23;20420;-82
2022/04/05 12:04:12;;;;;;;5.60;2.20;;;;;;;;;;12874205;23;20052;-79
2022/04/05 12:09:15;;;;;;;5.05;2.00;;;;;;;;;;12871828;23;20162;-78
2022/04/05 12:14:16;;;;;;;1.98;1.63;;;;;;;;;;12885424;23;20083;-77
2022/04/05 12:19:21;;;;;;;5.82;3.50;;;;;;;;;;12874524;23;20295;-80
2022/04/05 12:24:23;;;;;;;3.97;3.42;;;;;;;;;;12876887;23;20099;-79
2022/04/05 12:29:24;;;;;;;5.15;2.58;;;;;;;;;;12869286;23;20080;-76
2022/04/05 12:34:26;;;;;;;3.95;2.53;;;;;;;;;;12863401;23;20016;-76
2022/04/05 12:39:28;;;;;;;3.53;2.80;;;;;;;;;;12863756;23;20030;-77
2022/04/05 12:44:31;;;;;;;4.47;2.63;;;;;;;;;;12863457;23;20007;-77
2022/04/05 12:49:34;;;;;;;3.35;2.70;;;;;;;;;;12867550;23;20413;-78
2022/04/05 12:54:36;;;;;;;5.53;3.63;;;;;;;;;;12872949;23;20000;-78
2022/04/05 12:59:38;;;;;;;6.47;4.40;;;;;;;;;;12874280;23;20000;-78
2022/04/05 13:04:39;;;;;;;14.07;11.88;;;;;;;;;;12872436;23;20139;-78
2022/04/05 13:09:41;;;;;;;4.63;3.80;;;;;;;;;;12875873;23;20009;-78
2022/04/05 13:14:43;;;;;;;4.97;3.90;;;;;;;;;;12864967;23;20392;-77
2022/04/05 13:19:54;;;;;;;4.90;4.38;;;;;;;;;;12865850;23;20382;-78
2022/04/05 13:24:58;;;;;;;4.85;4.35;;;;;;;;;;12865467;23;20001;-78
2022/04/05 13:30:08;;;;;;;6.00;4.15;;;;;;;;;;12866593;23;20063;-79
2022/04/05 13:35:09;;;;;;;11.23;7.93;;;;;;;;;;12871841;23;20011;-79
2022/04/05 13:40:10;;;;;;;6.05;4.55;;;;;;;;;;12885691;23;20064;-79
2022/04/05 13:45:11;;;;;;;8.40;7.50;;;;;;;;;;12875023;23;20028;-77
2022/04/05 13:50:16;;;;;;;12.30;10.32;;;;;;;;;;12874617;23;20091;-79
2022/04/05 13:55:17;;;;;;;5.97;4.93;;;;;;;;;;12869882;23;20019;-78
2022/04/05 14:00:19;;;;;;;6.25;4.88;;;;;;;;;;12870122;23;20019;-78
2022/04/05 14:05:20;;;;;;;5.82;3.90;;;;;;;;;;12867664;23;20024;-78
2022/04/05 14:10:21;;;;;;;4.18;3.78;;;;;;;;;;12875389;23;20029;-78
2022/04/05 14:15:22;;;;;;;;;;;;;;;;;;12869125;23;20004;-78
2022/04/05 14:20:23;;;;;;;5.20;3.83;;;;;;;;;;12869556;23;19983;-79
2022/04/05 14:25:24;;;;;;;6.32;3.83;;;;;;;;;;12870716;23;20008;-78
2022/04/05 14:30:24;;;;;;;;;;;;;;;;;;12872103;23;20127;-79
2022/04/05 14:35:26;;;;;;;3.88;2.90;;;;;;;;;;12869038;23;19982;-79
2022/04/05 14:40:27;;;;;;;3.90;2.70;;;;;;;;;;12872553;23;20095;-79
2022/04/05 14:45:29;;;;;;;4.30;2.80;;;;;;;;;;12878775;23;20464;-79
2022/04/05 14:50:30;;;;;;;3.92;3.10;;;;;;;;;;12874918;23;20492;-80
2022/04/05 14:55:31;;;;;;;5.10;3.67;;;;;;;;;;12874161;23;20008;-78
2022/04/05 15:00:32;;;;;;;5.30;4.15;;;;;;;;;;12873447;23;20015;-78
2022/04/05 15:05:33;;;;;;;;;;;;;;;;;;12874192;23;20006;-80
2022/04/05 15:10:34;;;;;;;4.00;3.40;;;;;;;;;;12873310;23;20410;-80
2022/04/05 15:15:35;;;;;;;;;;;;;;;;;;12878794;23;20008;-80
2022/04/05 15:20:36;;;;;;;4.80;3.42;;;;;;;;;;12873259;23;19910;-81
2022/04/05 15:25:37;;;;;;;25.45;21.38;;;;;;;;;;12871735;23;20318;-79
2022/04/05 15:30:40;;;;;;;;;;;;;;;;;;12873076;23;20016;-81
2022/04/05 15:35:41;;;;;;;4.53;3.35;;;;;;;;;;12874906;23;19899;-79
2022/04/05 15:40:42;;;;;;;4.38;3.20;;;;;;;;;;12876940;23;20077;-80
2022/04/05 15:45:43;;;;;;;4.43;3.35;;;;;;;;;;12882204;23;20020;-81
2022/04/05 15:50:44;;;;;;;;;;;;;;;;;;12885797;23;20060;-79
2022/04/05 15:55:46;;;;;;;3.55;2.67;;;;;;;;;;12876371;23;19920;-79
2022/04/05 16:00:47;;;;;;;3.92;2.47;;;;;;;;;;12880048;23;20470;-80
2022/04/05 16:05:48;;;;;;;6.80;3.50;;;;;;;;;;12877068;23;20036;-78
2022/04/05 16:10:50;;;;;;;52.85;39.15;;;;;;;;;;12893658;23;20117;-82
2022/04/05 16:15:51;;;;;;;12.65;9.52;;;;;;;;;;12889239;23;20015;-83
2022/04/05 16:20:54;;;;;;;;;;;;;;;;;;12876088;23;20131;-78
2022/04/05 16:26:01;;;;;;;6.25;2.33;;;;;;;;;;12888398;23;19900;-85
2022/04/05 16:31:04;;;;;;;4.82;2.88;;;;;;;;;;12884259;23;20015;-86
2022/04/05 16:36:10;;;;;;;3.25;2.78;;;;;;;;;;12891159;23;20055;-86
2022/04/05 16:41:13;;;;;;;4.00;3.20;;;;;;;;;;12889319;23;20027;-85
2022/04/05 16:46:15;;;;;;;3.00;2.45;;;;;;;;;;12893434;23;20051;-86
2022/04/05 16:51:17;;;;;;;;;;;;;;;;;;12886218;23;20001;-86
2022/04/05 16:56:20;;;;;;;4.18;2.80;;;;;;;;;;12875537;23;20193;-87
2022/04/05 17:01:39;;;;;;;5.78;4.35;;;;;;;;;;12880007;23;20028;-86
2022/04/05 17:06:44;;;;;;;8.63;5.72;;;;;;;;;;12882794;23;20028;-87
2022/04/05 17:12:04;;;;;;;4.47;4.07;;;;;;;;;;12881569;23;20013;-87
2022/04/05 17:17:05;;;;;;;3.60;2.55;;;;;;;;;;12880651;23;20047;-85
2022/04/05 17:22:08;;;;;;;2.78;2.42;;;;;;;;;;12875954;23;20008;-85
2022/04/05 17:27:09;;;;;;;5.28;3.95;;;;;;;;;;12875606;23;20000;-86
2022/04/05 17:32:10;;;;;;;2.63;2.08;;;;;;;;;;12873957;23;20053;-86
2022/04/05 17:37:11;;;;;;;;;;;;;;;;;;12871704;23;20001;-85
2022/04/05 17:42:31;;;;;;;;;;;;;;;;;;;;;
